Terminal Aerodrome Forecast
Issued by NWS

Home | Current Version | Previous Version | Text Only | Print | Product List | Glossary On
Versions: 1 2 3 4 5 6 7 8 9 10 11 12
000
FTUS44 KOUN 291741
TAFGAG
TAF
KGAG 291741Z 2918/3018 35016G24KT 5SM -DZ BR OVC008
     FM300000 35016G23KT 2SM -SHRA BR OVC007
     FM301100 33022G29KT 2SM -RASN OVC015=

USA.gov is the U.S. government's official web portal to all federal, state and local government web resources and services.